This is the latest recevied weather packets stored in our database for station/object K5FEP. If no packets are shown the sender has not sent any weather packets the latest 10 day(s).
| Time | Temp. | Humidity | Pressure | Rain* | Wind** | Luminosity | Snow |
|---|---|---|---|---|---|---|---|
| 1777298186 | 14.44° C | 62% | 1024 hPa | 0 mm | - | 637 W/m² | - |
| 1777297881 | 13.89° C | 62% | 1024.2 hPa | 0 mm | - | 612 W/m² | - |
| 1777297579 | 13.89° C | 65% | 1024.3 hPa | 0 mm | - | 589 W/m² | - |
| 1777297275 | 13.33° C | 65% | 1024.2 hPa | 0 mm | - | 558 W/m² | - |
| 1777296973 | 13.33° C | 66% | 1024.1 hPa | 0 mm | - | 544 W/m² | - |
| 1777296669 | 12.78° C | 69% | 1024.1 hPa | 0 mm | - | 501 W/m² | - |
| 1777296349 | 12.78° C | 68% | 1024.2 hPa | 0 mm | - | 488 W/m² | - |
| 1777296045 | 12.78° C | 67% | 1024.4 hPa | 0 mm | - | 461 W/m² | - |
| 1777295742 | 12.78° C | 68% | 1024.2 hPa | 0 mm | - | 445 W/m² | - |
| 1777295440 | 12.78° C | 67% | 1024.1 hPa | 0 mm | - | 426 W/m² | - |
| 1777295137 | 12.78° C | 70% | 1024 hPa | 0 mm | - | 403 W/m² | - |
| 1777294834 | 12.78° C | 71% | 1024 hPa | 0 mm | - | 380 W/m² | - |
| 1777294534 | 12.78° C | 69% | 1024.1 hPa | 0 mm | - | 360 W/m² | - |
| 1777294231 | 12.22° C | 71% | 1023.9 hPa | 0 mm | - | 346 W/m² | - |
| 1777293929 | 12.22° C | 72% | 1024.2 hPa | 0 mm | - | 261 W/m² | - |
| 1777293624 | 12.22° C | 74% | 1024.2 hPa | 0 mm | - | 213 W/m² | - |
| 1777293320 | 11.67° C | 77% | 1024.1 hPa | 0 mm | - | 186 W/m² | - |
| 1777293016 | 11.67° C | 80% | 1024.1 hPa | 0 mm | - | 162 W/m² | - |
| 1777292714 | 10.56° C | 83% | 1024 hPa | 0 mm | - | 142 W/m² | - |
| 1777292411 | 10.56° C | 83% | 1023.9 hPa | 0 mm | - | 128 W/m² | - |
| 1777292108 | 10.56° C | 86% | 1024 hPa | 0 mm | - | 107 W/m² | - |
| 1777291804 | 10° C | 91% | 1023.9 hPa | 0 mm | - | 108 W/m² | - |
| 1777291501 | 8.89° C | 96% | 1023.8 hPa | 0 mm | - | 102 W/m² | - |
| 1777291197 | 8.89° C | 97% | 1023.8 hPa | 0 mm | - | 68 W/m² | - |
| 1777290894 | 8.33° C | 97% | 1023.9 hPa | 0 mm | - | 53 W/m² | - |
* Rain latest hour (hover to see other rain measurements)
** Current wind speed in m/s (hover to see current wind gust speed)